Time;durP1;ratioP1;P1;durP2;ratioP2;P2;SDS_P1;SDS_P2;PMS_P1;PMS_P2;Temp;Humidity;BMP_temperature;BMP_pressure;BME280_temperature;BME280_humidity;BME280_pressure;Samples;Min_cycle;Max_cycle;Signal;HPM_P1;HPM_P2
2021/08/21 09:18:24;;;;;;;21.15;12.30;;;;;;;;;;2098626;27;99958;-20
2021/08/21 09:19:26;;;;;;;24.33;12.93;;;;;;;;;;2088821;27;100042;-21
2021/08/21 09:20:27;;;;;;;21.67;11.80;;;;;;;;;;2088342;27;100064;-21
2021/08/21 09:21:28;;;;;;;24.70;11.95;;;;;;;;;;2088338;27;100067;-20
2021/08/21 09:22:29;;;;;;;;;;;;;;;;;;2079773;28;100141;-20
2021/08/21 09:23:38;;;;;;;22.10;12.10;;;;;;;;;;2071847;28;100596;-19
2021/08/21 09:24:40;;;;;;;25.40;12.15;;;;;;;;;;2080894;27;100039;-20
2021/08/21 09:25:42;;;;;;;25.15;11.82;;;;;;;;;;2089048;27;99980;-19
2021/08/21 09:26:43;;;;;;;21.05;11.77;;;;;;;;;;2088833;27;99940;-22
2021/08/21 09:27:45;;;;;;;;;;;;;;;;;;2082354;27;100325;-19
2021/08/21 09:28:51;;;;;;;24.25;12.48;;;;;;;;;;2079710;28;100027;-21
2021/08/21 09:30:15;;;;;;;26.33;11.25;;;;;;;;;;2079867;28;100067;-20
2021/08/21 09:31:20;;;;;;;24.65;11.07;;;;;;;;;;2080412;28;99981;-22
2021/08/21 09:32:28;;;;;;;29.33;11.40;;;;;;;;;;2080146;27;100355;-21
2021/08/21 09:33:30;;;;;;;21.60;11.13;;;;;;;;;;2079244;28;100063;-21
2021/08/21 09:34:32;;;;;;;21.50;11.35;;;;;;;;;;2065664;28;99937;-22
2021/08/21 09:35:33;;;;;;;24.02;10.57;;;;;;;;;;2062889;28;100053;-21
2021/08/21 09:36:44;;;;;;;23.85;11.23;;;;;;;;;;2063345;28;100070;-19
2021/08/21 09:37:48;;;;;;;23.20;12.15;;;;;;;;;;2077144;28;100057;-20
2021/08/21 09:38:49;;;;;;;24.42;10.82;;;;;;;;;;2072164;28;99962;-20
2021/08/21 09:39:49;;;;;;;;;;;;;;;;;;2072215;28;100011;-20
2021/08/21 09:40:58;;;;;;;17.77;10.27;;;;;;;;;;2078119;28;99990;-23
2021/08/21 09:42:01;;;;;;;20.45;11.05;;;;;;;;;;2067936;28;100132;-20
2021/08/21 09:43:07;;;;;;;19.52;10.38;;;;;;;;;;2063626;28;100114;-22
2021/08/21 09:44:09;;;;;;;31.45;12.95;;;;;;;;;;2071905;28;100180;-23
2021/08/21 09:45:10;;;;;;;40.17;13.35;;;;;;;;;;2076024;27;100040;-20
2021/08/21 09:46:15;;;;;;;29.67;13.13;;;;;;;;;;2080170;28;100082;-22
2021/08/21 09:47:26;;;;;;;28.63;12.18;;;;;;;;;;2079999;28;99940;-20
2021/08/21 09:48:27;;;;;;;19.85;11.52;;;;;;;;;;2079726;28;100212;-20
2021/08/21 09:49:27;;;;;;;;;;;;;;;;;;2080860;28;99990;-20
2021/08/21 09:50:46;;;;;;;30.70;11.50;;;;;;;;;;2080263;28;100169;-22
2021/08/21 09:51:47;;;;;;;23.80;11.90;;;;;;;;;;2080216;28;100140;-22
2021/08/21 09:52:49;;;;;;;34.55;13.18;;;;;;;;;;2080240;28;100118;-23
2021/08/21 09:53:59;;;;;;;26.58;11.45;;;;;;;;;;2080205;28;100043;-21
2021/08/21 09:55:09;;;;;;;26.65;11.55;;;;;;;;;;2080543;28;100636;-22
2021/08/21 09:56:11;;;;;;;26.80;11.23;;;;;;;;;;2071609;28;99970;-20
2021/08/21 09:57:19;;;;;;;21.67;11.73;;;;;;;;;;2063681;28;100064;-20
2021/08/21 09:58:20;;;;;;;31.67;11.63;;;;;;;;;;2069192;28;100834;-21
2021/08/21 09:59:43;;;;;;;25.80;11.52;;;;;;;;;;2079881;28;99987;-21
2021/08/21 10:00:44;;;;;;;21.00;10.40;;;;;;;;;;2078771;28;99940;-23
2021/08/21 10:01:46;;;;;;;20.58;11.15;;;;;;;;;;2080183;28;99915;-20
2021/08/21 10:02:47;;;;;;;20.73;10.70;;;;;;;;;;2080037;28;100156;-23
2021/08/21 10:03:48;;;;;;;24.40;11.18;;;;;;;;;;2080179;28;100025;-28
2021/08/21 10:04:50;;;;;;;25.30;11.13;;;;;;;;;;2062555;28;100110;-22
2021/08/21 10:05:51;;;;;;;25.20;11.63;;;;;;;;;;2063213;28;99958;-20
2021/08/21 10:06:51;;;;;;;;;;;;;;;;;;2072398;28;99807;-19
2021/08/21 10:07:59;;;;;;;26.10;12.00;;;;;;;;;;2072090;27;100160;-20
2021/08/21 10:09:05;;;;;;;27.00;11.70;;;;;;;;;;2064344;28;100102;-22
2021/08/21 10:10:11;;;;;;;25.17;11.07;;;;;;;;;;2072585;28;100034;-22
2021/08/21 10:11:13;;;;;;;23.58;11.13;;;;;;;;;;2076922;28;100146;-23
2021/08/21 10:12:15;;;;;;;20.45;11.25;;;;;;;;;;2072380;28;100136;-21
2021/08/21 10:13:27;;;;;;;26.05;11.27;;;;;;;;;;2062811;28;100107;-21
2021/08/21 10:14:29;;;;;;;27.95;12.23;;;;;;;;;;2064422;28;101834;-24
2021/08/21 10:15:30;;;;;;;25.67;11.15;;;;;;;;;;2055639;28;100021;-21
2021/08/21 10:16:31;;;;;;;;;;;;;;;;;;2070838;28;100060;-21
2021/08/21 10:17:32;;;;;;;;;;;;;;;;;;2077264;28;100050;-20
2021/08/21 10:18:34;;;;;;;25.27;10.52;;;;;;;;;;2070016;28;99920;-21
2021/08/21 10:19:37;;;;;;;32.50;11.15;;;;;;;;;;2065724;28;100186;-20
2021/08/21 10:20:39;;;;;;;30.35;12.20;;;;;;;;;;2065322;28;100017;-20
2021/08/21 10:21:40;;;;;;;27.02;11.15;;;;;;;;;;2065269;28;100427;-21
2021/08/21 10:22:41;;;;;;;29.90;11.70;;;;;;;;;;2065645;28;99882;-23
2021/08/21 10:23:44;;;;;;;25.63;11.38;;;;;;;;;;2066001;28;99998;-21
2021/08/21 10:24:48;;;;;;;28.77;10.57;;;;;;;;;;2066452;28;99917;-20
2021/08/21 10:26:00;;;;;;;20.38;10.65;;;;;;;;;;2066288;28;100397;-20
2021/08/21 10:27:13;;;;;;;33.95;11.63;;;;;;;;;;2065603;28;99953;-21
2021/08/21 10:28:16;;;;;;;30.83;11.23;;;;;;;;;;2059074;28;100009;-19
2021/08/21 10:29:17;;;;;;;28.98;11.38;;;;;;;;;;2065518;28;100078;-19
2021/08/21 10:30:20;;;;;;;26.15;10.93;;;;;;;;;;2065585;28;99982;-18
2021/08/21 10:31:54;;;;;;;26.00;10.75;;;;;;;;;;2065355;28;99980;-19
2021/08/21 10:33:03;;;;;;;28.60;10.90;;;;;;;;;;2040881;28;100047;-20
2021/08/21 10:34:06;;;;;;;30.60;11.73;;;;;;;;;;2068300;28;100227;-20
2021/08/21 10:35:09;;;;;;;25.52;11.00;;;;;;;;;;2073615;28;100541;-18
2021/08/21 10:36:10;;;;;;;27.15;11.18;;;;;;;;;;2066150;28;100108;-20
2021/08/21 10:37:32;;;;;;;26.50;11.18;;;;;;;;;;2066054;28;99947;-20
2021/08/21 10:38:36;;;;;;;32.35;11.48;;;;;;;;;;2066146;28;99899;-18
2021/08/21 10:39:38;;;;;;;27.02;11.38;;;;;;;;;;2066576;28;100642;-19
2021/08/21 10:40:39;;;;;;;26.45;11.60;;;;;;;;;;2065666;28;100130;-19
2021/08/21 10:41:40;;;;;;;27.33;11.20;;;;;;;;;;2065779;28;100302;-19
2021/08/21 10:42:53;;;;;;;22.95;10.93;;;;;;;;;;2066370;28;100002;-18
2021/08/21 10:43:57;;;;;;;25.50;10.68;;;;;;;;;;2066105;28;99966;-19
2021/08/21 10:45:00;;;;;;;28.50;11.10;;;;;;;;;;2066458;28;100073;-18
2021/08/21 10:46:01;;;;;;;29.20;10.65;;;;;;;;;;2065965;28;100010;-19
2021/08/21 10:47:01;;;;;;;;;;;;;;;;;;2066748;28;100089;-18
2021/08/21 10:48:03;;;;;;;29.95;10.85;;;;;;;;;;2066109;28;100080;-20
2021/08/21 10:49:05;;;;;;;31.67;11.15;;;;;;;;;;2066368;28;100016;-18
2021/08/21 10:50:11;;;;;;;27.25;10.35;;;;;;;;;;2065838;28;100076;-18
2021/08/21 10:51:31;;;;;;;27.48;10.95;;;;;;;;;;2066243;28;100299;-19
2021/08/21 10:52:51;;;;;;;29.65;10.88;;;;;;;;;;2065464;28;99946;-20
2021/08/21 10:53:52;;;;;;;30.77;10.80;;;;;;;;;;2065987;28;99870;-18
2021/08/21 10:54:53;;;;;;;;;;;;;;;;;;2065845;28;100058;-19
2021/08/21 10:55:56;;;;;;;26.15;10.80;;;;;;;;;;2065621;28;100006;-19
2021/08/21 10:57:18;;;;;;;26.95;10.63;;;;;;;;;;2066317;28;100426;-18
2021/08/21 10:58:22;;;;;;;26.98;10.75;;;;;;;;;;2066179;28;99944;-18
2021/08/21 10:59:44;;;;;;;22.95;10.82;;;;;;;;;;2066352;28;99924;-20
2021/08/21 11:00:50;;;;;;;27.75;11.25;;;;;;;;;;2065046;28;100101;-19
2021/08/21 11:01:51;;;;;;;25.15;10.70;;;;;;;;;;2065499;28;99926;-21
2021/08/21 11:02:55;;;;;;;;;;;;;;;;;;2066684;28;100465;-20
2021/08/21 11:03:58;;;;;;;35.85;11.30;;;;;;;;;;2074753;28;99978;-21
2021/08/21 11:05:03;;;;;;;30.13;10.95;;;;;;;;;;2066860;28;101661;-19
2021/08/21 11:06:09;;;;;;;22.23;10.88;;;;;;;;;;2049092;28;99944;-19
2021/08/21 11:07:32;;;;;;;24.08;9.75;;;;;;;;;;2065185;28;100090;-17
2021/08/21 11:08:35;;;;;;;31.55;11.55;;;;;;;;;;2066099;28;99952;-17
2021/08/21 11:09:37;;;;;;;30.42;10.80;;;;;;;;;;2065999;28;99854;-20
2021/08/21 11:10:38;;;;;;;36.42;11.30;;;;;;;;;;2065345;28;100028;-17
2021/08/21 11:11:48;;;;;;;21.13;10.05;;;;;;;;;;2064207;28;100307;-18
2021/08/21 11:12:53;;;;;;;22.33;10.57;;;;;;;;;;2064854;28;100283;-19
2021/08/21 11:14:01;;;;;;;26.15;10.30;;;;;;;;;;2065283;28;100048;-20
2021/08/21 11:15:34;;;;;;;27.73;10.32;;;;;;;;;;2065578;28;99939;-19
2021/08/21 11:16:46;;;;;;;26.30;10.95;;;;;;;;;;2040121;28;100041;-20
2021/08/21 11:17:49;;;;;;;22.00;10.00;;;;;;;;;;2062373;28;100143;-22
2021/08/21 11:18:51;;;;;;;22.77;10.93;;;;;;;;;;2065979;28;100029;-22
2021/08/21 11:19:52;;;;;;;25.27;10.60;;;;;;;;;;2065647;28;99991;-23
2021/08/21 11:20:53;;;;;;;;;;;;;;;;;;2066465;28;99864;-23
2021/08/21 11:22:20;;;;;;;26.00;10.23;;;;;;;;;;2066161;28;100184;-21
2021/08/21 11:23:21;;;;;;;25.60;11.05;;;;;;;;;;2065695;28;99809;-20
2021/08/21 11:24:27;;;;;;;23.20;10.27;;;;;;;;;;2065935;28;100005;-20
2021/08/21 11:25:28;;;;;;;19.45;10.27;;;;;;;;;;2065868;28;100049;-21
2021/08/21 11:26:29;;;;;;;;;;;;;;;;;;2066645;28;100155;-20
2021/08/21 11:27:36;;;;;;;27.92;11.00;;;;;;;;;;2065324;28;100125;-22
2021/08/21 11:28:37;;;;;;;29.55;10.60;;;;;;;;;;2065310;28;100552;-20
2021/08/21 11:30:21;;;;;;;24.23;10.25;;;;;;;;;;2065564;28;99969;-20
2021/08/21 11:31:22;;;;;;;25.42;10.10;;;;;;;;;;2065431;28;99994;-21
2021/08/21 11:32:23;;;;;;;24.15;10.02;;;;;;;;;;2065020;28;99945;-20
2021/08/21 11:33:24;;;;;;;24.88;10.73;;;;;;;;;;2065254;28;100517;-21
2021/08/21 11:34:25;;;;;;;25.48;10.00;;;;;;;;;;2064997;28;100021;-21
2021/08/21 11:35:32;;;;;;;22.15;10.73;;;;;;;;;;2065533;28;99991;-18
2021/08/21 11:36:33;;;;;;;22.10;10.32;;;;;;;;;;2065730;28;100073;-21
2021/08/21 11:37:34;;;;;;;23.30;10.00;;;;;;;;;;2065965;28;99899;-19
2021/08/21 11:38:39;;;;;;;22.58;9.85;;;;;;;;;;2065738;28;99993;-19
2021/08/21 11:39:39;;;;;;;28.65;10.32;;;;;;;;;;2066131;28;99887;-21
2021/08/21 11:40:42;;;;;;;;;;;;;;;;;;2066048;28;100035;-21
2021/08/21 11:41:56;;;;;;;25.65;10.40;;;;;;;;;;2066147;28;100003;-21
2021/08/21 11:42:57;;;;;;;19.63;9.80;;;;;;;;;;2065715;28;100056;-19
2021/08/21 11:44:04;;;;;;;;;;;;;;;;;;2066634;28;99831;-19
2021/08/21 11:45:05;;;;;;;18.70;9.02;;;;;;;;;;2057587;28;100071;-18
2021/08/21 11:46:07;;;;;;;21.83;9.63;;;;;;;;;;2062939;28;100608;-18
2021/08/21 11:47:09;;;;;;;17.80;9.52;;;;;;;;;;2065050;28;100309;-20
2021/08/21 11:48:11;;;;;;;20.98;9.52;;;;;;;;;;2059077;28;100017;-20
2021/08/21 11:49:12;;;;;;;21.67;9.48;;;;;;;;;;2056800;28;100043;-19
2021/08/21 11:50:18;;;;;;;;;;;;;;;;;;2057577;28;99968;-20
2021/08/21 11:51:22;;;;;;;19.17;10.18;;;;;;;;;;2057156;28;99954;-21
2021/08/21 11:52:23;;;;;;;20.90;9.02;;;;;;;;;;2059838;28;100244;-21
2021/08/21 11:53:25;;;;;;;;;;;;;;;;;;2066233;28;100302;-21
2021/08/21 11:54:27;;;;;;;24.55;9.27;;;;;;;;;;2065710;28;99964;-18
2021/08/21 11:55:29;;;;;;;18.50;9.32;;;;;;;;;;2065275;28;99910;-21
2021/08/21 11:56:30;;;;;;;27.63;9.68;;;;;;;;;;2065762;28;100165;-20
2021/08/21 11:57:44;;;;;;;15.20;9.15;;;;;;;;;;2064398;28;100456;-21
2021/08/21 11:58:48;;;;;;;22.08;9.45;;;;;;;;;;2064817;28;99889;-19
2021/08/21 11:59:48;;;;;;;17.30;8.95;;;;;;;;;;2057521;28;100039;-21
2021/08/21 12:00:53;;;;;;;;;;;;;;;;;;2058324;28;100043;-19
2021/08/21 12:02:02;;;;;;;20.63;9.38;;;;;;;;;;2066033;28;99945;-22
2021/08/21 12:03:06;;;;;;;16.17;9.32;;;;;;;;;;2065343;28;99932;-22
2021/08/21 12:05:11;;;;;;;19.23;9.40;;;;;;;;;;2062219;28;100092;-21
2021/08/21 12:06:25;;;;;;;15.07;9.13;;;;;;;;;;2057030;28;101387;-19
2021/08/21 12:07:33;;;;;;;17.13;9.27;;;;;;;;;;2058981;28;100308;-18
2021/08/21 12:08:34;;;;;;;16.27;9.27;;;;;;;;;;2066079;28;100410;-18
2021/08/21 12:09:35;;;;;;;;;;;;;;;;;;2065657;28;100051;-18
2021/08/21 12:10:47;;;;;;;17.60;8.93;;;;;;;;;;2065794;28;100030;-23
2021/08/21 12:11:50;;;;;;;15.45;9.10;;;;;;;;;;2065675;28;99973;-18
2021/08/21 12:12:53;;;;;;;19.77;8.77;;;;;;;;;;2065041;28;99987;-18
2021/08/21 12:13:54;;;;;;;17.02;8.85;;;;;;;;;;2057257;28;100450;-22
2021/08/21 12:14:55;;;;;;;;;;;;;;;;;;2058262;28;99972;-21
2021/08/21 12:15:58;;;;;;;16.80;9.43;;;;;;;;;;2065376;28;100459;-18
2021/08/21 12:16:59;;;;;;;14.45;8.80;;;;;;;;;;2064164;28;100507;-21
2021/08/21 12:18:00;;;;;;;;;;;;;;;;;;2062835;28;100182;-19
2021/08/21 12:19:02;;;;;;;20.83;8.48;;;;;;;;;;2065510;28;100009;-20
2021/08/21 12:20:03;;;;;;;15.15;8.43;;;;;;;;;;2065667;28;99947;-23
2021/08/21 12:21:06;;;;;;;14.68;8.77;;;;;;;;;;2065325;28;100036;-20
2021/08/21 12:22:08;;;;;;;15.27;8.30;;;;;;;;;;2064661;28;100103;-20
2021/08/21 12:23:12;;;;;;;14.63;8.27;;;;;;;;;;2062702;28;100186;-20
2021/08/21 12:24:13;;;;;;;14.38;8.93;;;;;;;;;;2063600;28;100152;-21
2021/08/21 12:25:13;;;;;;;;;;;;;;;;;;2056770;28;100102;-18
2021/08/21 12:26:17;;;;;;;19.23;8.63;;;;;;;;;;2064451;28;100402;-21
2021/08/21 12:27:25;;;;;;;12.93;8.25;;;;;;;;;;2062290;28;99994;-21
2021/08/21 12:28:46;;;;;;;11.80;7.57;;;;;;;;;;2057435;28;99974;-18
2021/08/21 12:29:47;;;;;;;13.52;7.80;;;;;;;;;;2058262;28;100310;-21
2021/08/21 12:30:54;;;;;;;;;;;;;;;;;;2057234;28;100018;-19
2021/08/21 12:31:56;;;;;;;11.93;8.57;;;;;;;;;;2064491;28;99865;-22
2021/08/21 12:33:09;;;;;;;15.63;8.02;;;;;;;;;;2065662;28;100364;-19
2021/08/21 12:34:16;;;;;;;14.77;8.38;;;;;;;;;;2056966;28;99995;-19
2021/08/21 12:35:20;;;;;;;13.30;8.02;;;;;;;;;;2056989;28;100103;-19
2021/08/21 12:36:25;;;;;;;15.27;7.78;;;;;;;;;;2056637;28;99999;-20
2021/08/21 12:37:25;;;;;;;15.63;8.20;;;;;;;;;;2060967;28;100036;-21
2021/08/21 12:38:26;;;;;;;;;;;;;;;;;;2065859;28;99966;-22
2021/08/21 12:39:28;;;;;;;13.02;8.43;;;;;;;;;;2061957;28;100127;-18
2021/08/21 12:40:29;;;;;;;15.68;8.52;;;;;;;;;;2057322;28;99948;-18
2021/08/21 12:41:42;;;;;;;14.73;8.10;;;;;;;;;;2057642;28;100176;-19
2021/08/21 12:42:44;;;;;;;14.50;7.85;;;;;;;;;;2059261;28;99982;-18
2021/08/21 12:43:44;;;;;;;13.65;7.90;;;;;;;;;;2065462;28;99937;-19
2021/08/21 12:44:45;;;;;;;;;;;;;;;;;;2066298;28;100349;-19
2021/08/21 12:45:48;;;;;;;12.40;7.60;;;;;;;;;;2065381;28;99885;-21
2021/08/21 12:46:50;;;;;;;16.40;7.55;;;;;;;;;;2065258;28;100025;-17
2021/08/21 12:47:52;;;;;;;12.70;8.13;;;;;;;;;;2065330;28;99995;-20
2021/08/21 12:49:04;;;;;;;14.25;8.20;;;;;;;;;;2064715;28;100075;-21
2021/08/21 12:50:10;;;;;;;10.52;7.32;;;;;;;;;;2056757;28;99896;-18
2021/08/21 12:51:11;;;;;;;11.30;7.90;;;;;;;;;;2057021;28;99999;-22
2021/08/21 12:52:19;;;;;;;13.45;8.45;;;;;;;;;;2056692;28;99851;-20
2021/08/21 12:53:24;;;;;;;13.52;8.02;;;;;;;;;;2056692;28;100089;-21
2021/08/21 12:54:31;;;;;;;11.43;7.38;;;;;;;;;;2065160;28;100319;-20
2021/08/21 12:55:35;;;;;;;11.35;7.43;;;;;;;;;;2065224;28;100039;-20
2021/08/21 12:56:59;;;;;;;14.50;8.23;;;;;;;;;;2065934;28;100358;-20
2021/08/21 12:58:05;;;;;;;12.13;7.63;;;;;;;;;;2060865;28;99992;-21
2021/08/21 12:59:07;;;;;;;11.15;7.07;;;;;;;;;;2065898;28;100009;-19
2021/08/21 13:00:18;;;;;;;14.82;7.68;;;;;;;;;;2065131;28;100517;-19
2021/08/21 13:01:29;;;;;;;12.95;8.02;;;;;;;;;;2065274;28;100103;-19
2021/08/21 13:02:49;;;;;;;13.80;8.05;;;;;;;;;;2065799;28;100184;-20
2021/08/21 13:04:04;;;;;;;13.25;7.72;;;;;;;;;;2062363;28;100091;-21
2021/08/21 13:05:05;;;;;;;11.02;7.75;;;;;;;;;;2065594;28;99870;-21
2021/08/21 13:06:06;;;;;;;12.43;7.88;;;;;;;;;;2056678;28;99900;-21
2021/08/21 13:07:08;;;;;;;;;;;;;;;;;;2056890;28;100106;-19
2021/08/21 13:08:10;;;;;;;12.75;7.57;;;;;;;;;;2060610;28;100136;-21
2021/08/21 13:09:11;;;;;;;11.02;7.38;;;;;;;;;;2064946;28;99907;-20
2021/08/21 13:10:15;;;;;;;11.75;7.47;;;;;;;;;;2065360;28;100203;-21
2021/08/21 13:11:18;;;;;;;14.25;8.40;;;;;;;;;;2065338;28;100022;-21
2021/08/21 13:12:18;;;;;;;13.43;7.63;;;;;;;;;;2065495;28;99986;-21
2021/08/21 13:13:19;;;;;;;;;;;;;;;;;;2065476;28;100024;-22
2021/08/21 13:14:20;;;;;;;11.68;7.10;;;;;;;;;;2065663;28;99965;-20
2021/08/21 13:15:21;;;;;;;;;;;;;;;;;;2065900;28;99903;-21
2021/08/21 13:16:22;;;;;;;11.85;7.32;;;;;;;;;;2065812;28;99796;-18
2021/08/21 13:17:23;;;;;;;10.05;7.70;;;;;;;;;;2063299;28;100113;-19
2021/08/21 13:18:24;;;;;;;;;;;;;;;;;;2062557;28;100017;-20
2021/08/21 13:19:24;;;;;;;13.27;7.87;;;;;;;;;;2064271;28;100280;-20
2021/08/21 13:20:25;;;;;;;14.50;8.20;;;;;;;;;;2057113;28;99997;-22
2021/08/21 13:21:26;;;;;;;;;;;;;;;;;;2057693;28;100053;-20
2021/08/21 13:22:28;;;;;;;11.48;7.80;;;;;;;;;;2057190;28;100061;-22
2021/08/21 13:23:29;;;;;;;14.60;7.93;;;;;;;;;;2063256;28;100042;-22
2021/08/21 13:24:32;;;;;;;13.13;8.13;;;;;;;;;;2064879;28;99999;-21
2021/08/21 13:25:33;;;;;;;14.32;8.27;;;;;;;;;;2064659;28;100043;-20
2021/08/21 13:26:36;;;;;;;;;;;;;;;;;;2065153;28;100052;-22
2021/08/21 13:27:38;;;;;;;14.55;7.97;;;;;;;;;;2064560;28;100074;-20
2021/08/21 13:28:38;;;;;;;10.90;7.65;;;;;;;;;;2063521;28;99993;-20
2021/08/21 13:29:39;;;;;;;;;;;;;;;;;;2065788;28;99937;-19
2021/08/21 13:30:40;;;;;;;12.15;8.05;;;;;;;;;;2064791;28;100054;-21
2021/08/21 13:31:41;;;;;;;;;;;;;;;;;;2064881;28;100115;-19
2021/08/21 13:32:42;;;;;;;14.05;7.93;;;;;;;;;;2067267;28;100063;-18
2021/08/21 13:33:43;;;;;;;14.50;7.80;;;;;;;;;;2063798;28;100233;-20
2021/08/21 13:34:44;;;;;;;;;;;;;;;;;;2065573;28;99879;-19
2021/08/21 13:35:45;;;;;;;13.40;8.13;;;;;;;;;;2065137;28;100572;-20
2021/08/21 13:36:48;;;;;;;15.27;8.10;;;;;;;;;;2065256;28;99997;-19
2021/08/21 13:37:49;;;;;;;13.10;7.90;;;;;;;;;;2065022;28;101468;-21
2021/08/21 13:38:50;;;;;;;11.55;6.80;;;;;;;;;;2065183;28;100072;-21
2021/08/21 13:39:51;;;;;;;;;;;;;;;;;;2065616;28;100119;-20
2021/08/21 13:40:52;;;;;;;10.73;6.95;;;;;;;;;;2065199;28;99825;-19
2021/08/21 13:41:52;;;;;;;14.32;8.05;;;;;;;;;;2064698;28;99933;-21
2021/08/21 13:42:54;;;;;;;13.07;8.10;;;;;;;;;;2057024;28;100279;-20
2021/08/21 13:43:55;;;;;;;14.52;7.97;;;;;;;;;;2056861;28;99975;-19
2021/08/21 13:44:56;;;;;;;;;;;;;;;;;;2056862;28;100050;-19
2021/08/21 13:45:57;;;;;;;14.93;7.35;;;;;;;;;;2064224;28;100093;-18
2021/08/21 13:47:01;;;;;;;;;;;;;;;;;;2065479;28;100081;-20
2021/08/21 13:48:03;;;;;;;17.92;8.38;;;;;;;;;;2064584;28;99961;-20
2021/08/21 13:49:04;;;;;;;13.60;8.07;;;;;;;;;;2064713;28;99983;-22
2021/08/21 13:50:06;;;;;;;11.40;7.80;;;;;;;;;;2064998;28;100316;-21
2021/08/21 13:51:07;;;;;;;13.70;8.68;;;;;;;;;;2064291;28;99985;-19
2021/08/21 13:52:07;;;;;;;;;;;;;;;;;;2064056;28;99995;-21
2021/08/21 13:53:08;;;;;;;14.55;8.13;;;;;;;;;;2064811;28;100383;-20
2021/08/21 13:54:09;;;;;;;14.25;8.13;;;;;;;;;;2064902;28;100216;-22
2021/08/21 13:55:10;;;;;;;16.60;7.93;;;;;;;;;;2065988;28;100083;-20
2021/08/21 13:56:11;;;;;;;13.52;7.78;;;;;;;;;;2066611;28;100087;-19
2021/08/21 13:57:12;;;;;;;;;;;;;;;;;;2066311;28;99886;-21
2021/08/21 13:58:13;;;;;;;16.95;8.15;;;;;;;;;;2057628;28;100105;-22
2021/08/21 13:59:14;;;;;;;16.73;7.55;;;;;;;;;;2066155;28;99921;-20
2021/08/21 14:00:15;;;;;;;16.88;7.55;;;;;;;;;;2066115;28;99837;-20
2021/08/21 14:01:16;;;;;;;;;;;;;;;;;;2066977;28;99895;-19
2021/08/21 14:02:18;;;;;;;16.70;7.63;;;;;;;;;;2065350;28;100064;-19
2021/08/21 14:03:19;;;;;;;16.10;8.18;;;;;;;;;;2065913;28;99859;-20
2021/08/21 14:04:19;;;;;;;;;;;;;;;;;;2066888;28;100020;-19
2021/08/21 14:05:20;;;;;;;18.42;7.47;;;;;;;;;;2066798;28;99919;-20
2021/08/21 14:06:21;;;;;;;18.67;8.00;;;;;;;;;;2066586;28;100387;-20
2021/08/21 14:07:23;;;;;;;15.75;8.38;;;;;;;;;;2066733;28;99874;-19
2021/08/21 14:08:23;;;;;;;17.70;8.02;;;;;;;;;;2066703;28;99950;-19
2021/08/21 14:09:24;;;;;;;14.07;7.97;;;;;;;;;;2066866;28;99800;-22
2021/08/21 14:10:25;;;;;;;;;;;;;;;;;;2066726;28;100423;-22
2021/08/21 14:11:26;;;;;;;14.45;7.60;;;;;;;;;;2066861;28;99996;-23
2021/08/21 14:12:28;;;;;;;14.75;7.20;;;;;;;;;;2065390;28;99998;-20
2021/08/21 14:13:29;;;;;;;;;;;;;;;;;;2058403;28;100024;-21
2021/08/21 14:14:30;;;;;;;16.05;7.53;;;;;;;;;;2065265;28;100095;-22
2021/08/21 14:15:31;;;;;;;18.48;8.65;;;;;;;;;;2066538;28;99987;-20
2021/08/21 14:16:33;;;;;;;18.70;8.30;;;;;;;;;;2066408;28;99967;-21
2021/08/21 14:17:34;;;;;;;13.27;7.57;;;;;;;;;;2066056;28;99989;-19
2021/08/21 14:18:35;;;;;;;16.63;7.53;;;;;;;;;;2066393;28;100042;-18
2021/08/21 14:19:35;;;;;;;;;;;;;;;;;;2067324;28;100020;-27
2021/08/21 14:20:39;;;;;;;17.67;7.30;;;;;;;;;;2066411;28;99974;-19
2021/08/21 14:21:40;;;;;;;18.65;8.23;;;;;;;;;;2066652;28;100067;-21
2021/08/21 14:22:41;;;;;;;16.52;7.75;;;;;;;;;;2066391;28;100341;-19
2021/08/21 14:23:42;;;;;;;16.15;7.75;;;;;;;;;;2066492;28;100217;-20
2021/08/21 14:24:43;;;;;;;;;;;;;;;;;;2065990;28;99927;-19
2021/08/21 14:25:44;;;;;;;15.98;8.00;;;;;;;;;;2065932;28;99999;-20
2021/08/21 14:26:45;;;;;;;17.13;7.45;;;;;;;;;;2066528;28;100091;-22
2021/08/21 14:27:46;;;;;;;;;;;;;;;;;;2066341;28;100008;-19
2021/08/21 14:28:47;;;;;;;13.20;7.07;;;;;;;;;;2066497;28;100077;-22
2021/08/21 14:29:48;;;;;;;;;;;;;;;;;;2067037;28;100033;-22
2021/08/21 14:30:48;;;;;;;13.05;6.68;;;;;;;;;;2066282;28;99988;-22
2021/08/21 14:31:49;;;;;;;15.48;7.82;;;;;;;;;;2066217;28;99910;-20
2021/08/21 14:32:52;;;;;;;17.27;7.88;;;;;;;;;;2066101;28;99936;-19
2021/08/21 14:33:52;;;;;;;16.48;7.72;;;;;;;;;;2065433;28;99980;-19
2021/08/21 14:34:53;;;;;;;;;;;;;;;;;;2067076;28;99868;-21
2021/08/21 14:35:54;;;;;;;14.32;8.13;;;;;;;;;;2066445;28;99867;-19
2021/08/21 14:36:55;;;;;;;;;;;;;;;;;;2067025;28;99848;-21
2021/08/21 14:37:56;;;;;;;13.38;8.05;;;;;;;;;;2066452;28;100084;-23
2021/08/21 14:38:56;;;;;;;;;;;;;;;;;;2066463;28;99999;-22
2021/08/21 14:39:57;;;;;;;13.75;7.93;;;;;;;;;;2065781;28;100363;-23
2021/08/21 14:40:58;;;;;;;13.98;7.82;;;;;;;;;;2065686;28;99963;-21
2021/08/21 14:41:59;;;;;;;13.43;7.40;;;;;;;;;;2066291;28;100133;-21
2021/08/21 14:43:00;;;;;;;;;;;;;;;;;;2066522;28;100439;-22
2021/08/21 14:44:02;;;;;;;19.30;8.07;;;;;;;;;;2066243;28;99962;-20
2021/08/21 14:45:04;;;;;;;10.60;6.97;;;;;;;;;;2066254;28;99899;-21
2021/08/21 14:46:05;;;;;;;18.73;7.88;;;;;;;;;;2065934;28;99858;-19
2021/08/21 14:47:06;;;;;;;;;;;;;;;;;;2066703;28;99978;-20
2021/08/21 14:48:07;;;;;;;12.98;7.65;;;;;;;;;;2066202;28;100129;-20
2021/08/21 14:49:07;;;;;;;14.32;7.50;;;;;;;;;;2065802;28;100149;-21
2021/08/21 14:50:09;;;;;;;;;;;;;;;;;;2066206;28;100332;-22
2021/08/21 14:51:10;;;;;;;12.93;7.40;;;;;;;;;;2066681;28;99978;-22
2021/08/21 14:52:11;;;;;;;;;;;;;;;;;;2066925;28;100041;-19
2021/08/21 14:53:11;;;;;;;12.10;6.85;;;;;;;;;;2065636;28;99986;-19
2021/08/21 14:54:12;;;;;;;12.88;7.32;;;;;;;;;;2040654;28;99978;-20
2021/08/21 14:55:13;;;;;;;;;;;;;;;;;;2049978;28;99937;-22
2021/08/21 14:56:14;;;;;;;11.15;7.00;;;;;;;;;;2065937;28;99966;-19
2021/08/21 14:57:15;;;;;;;12.93;7.22;;;;;;;;;;2065565;28;100263;-19
2021/08/21 14:58:16;;;;;;;;;;;;;;;;;;2057402;28;100412;-18
2021/08/21 14:59:17;;;;;;;11.98;6.80;;;;;;;;;;2057230;28;100200;-23
2021/08/21 15:00:18;;;;;;;13.23;7.57;;;;;;;;;;2057089;28;100080;-22
2021/08/21 15:01:19;;;;;;;;;;;;;;;;;;2065986;28;100069;-22
2021/08/21 15:02:19;;;;;;;12.73;7.55;;;;;;;;;;2066044;28;100085;-22
2021/08/21 15:03:21;;;;;;;13.75;7.47;;;;;;;;;;2065999;28;99887;-19
2021/08/21 15:04:21;;;;;;;;;;;;;;;;;;2066613;28;99913;-20
2021/08/21 15:05:22;;;;;;;13.00;6.90;;;;;;;;;;2065950;28;100106;-22
2021/08/21 15:06:23;;;;;;;11.85;7.50;;;;;;;;;;2065874;28;100426;-22
2021/08/21 15:07:24;;;;;;;15.73;7.85;;;;;;;;;;2065506;28;99964;-22
2021/08/21 15:08:25;;;;;;;;;;;;;;;;;;2065783;28;99931;-22
2021/08/21 15:09:26;;;;;;;17.00;7.20;;;;;;;;;;2065992;28;100094;-20
2021/08/21 15:10:26;;;;;;;13.73;7.57;;;;;;;;;;2065944;28;100010;-23
2021/08/21 15:11:27;;;;;;;;;;;;;;;;;;2066401;28;99987;-20
2021/08/21 15:12:28;;;;;;;14.25;6.75;;;;;;;;;;2065845;28;100211;-20
2021/08/21 15:13:31;;;;;;;;;;;;;;;;;;2066366;28;100288;-22
2021/08/21 15:14:33;;;;;;;17.85;7.15;;;;;;;;;;2066338;28;99930;-21
2021/08/21 15:15:34;;;;;;;17.33;7.85;;;;;;;;;;2065932;28;99863;-19
2021/08/21 15:16:36;;;;;;;;;;;;;;;;;;2066764;28;99850;-22
2021/08/21 15:17:38;;;;;;;15.38;7.68;;;;;;;;;;2066079;28;100014;-22
2021/08/21 15:18:39;;;;;;;13.68;6.65;;;;;;;;;;2065820;28;100222;-20
2021/08/21 15:19:40;;;;;;;;;;;;;;;;;;2066437;28;100017;-22
2021/08/21 15:20:41;;;;;;;12.73;7.18;;;;;;;;;;2065610;28;100477;-23
2021/08/21 15:21:46;;;;;;;15.50;7.65;;;;;;;;;;2057305;28;99904;-23
2021/08/21 15:22:48;;;;;;;16.55;7.03;;;;;;;;;;2065322;28;99954;-21
2021/08/21 15:23:49;;;;;;;12.55;7.18;;;;;;;;;;2056732;28;100111;-23
2021/08/21 15:24:51;;;;;;;;;;;;;;;;;;2049249;28;100169;-22
2021/08/21 15:25:51;;;;;;;;;;;;;;;;;;2065687;28;99977;-23
2021/08/21 15:26:52;;;;;;;15.93;7.40;;;;;;;;;;2066401;28;99865;-24
2021/08/21 15:27:53;;;;;;;10.23;6.85;;;;;;;;;;2066024;28;99923;-24
2021/08/21 15:28:54;;;;;;;13.10;7.55;;;;;;;;;;2065311;28;99982;-21
2021/08/21 15:29:56;;;;;;;;;;;;;;;;;;2065641;28;99936;-19
2021/08/21 15:31:00;;;;;;;14.95;7.28;;;;;;;;;;2066134;28;99986;-21
2021/08/21 15:32:01;;;;;;;16.50;7.30;;;;;;;;;;2065653;28;99905;-19
2021/08/21 15:33:03;;;;;;;14.85;7.70;;;;;;;;;;2065573;28;99895;-19
2021/08/21 15:34:10;;;;;;;15.68;7.97;;;;;;;;;;2065882;28;100040;-21
2021/08/21 15:35:12;;;;;;;13.15;7.28;;;;;;;;;;2066053;28;99896;-19
2021/08/21 15:36:13;;;;;;;15.13;7.10;;;;;;;;;;2066049;28;100076;-21
2021/08/21 15:37:14;;;;;;;;;;;;;;;;;;2057362;28;101150;-18
2021/08/21 15:38:17;;;;;;;14.95;7.43;;;;;;;;;;2057030;28;99945;-18
2021/08/21 15:39:18;;;;;;;13.13;7.43;;;;;;;;;;2056888;28;100107;-19